sensor_id;sensor_type;location;lat;lon;timestamp;P1;durP1;ratioP1;P2;durP2;ratioP2
50900;SDS011;36879;51.416;6.678;2023-03-01T00:01:02;10.95;;;7.32;;
50900;SDS011;36879;51.416;6.678;2023-03-01T00:03:29;12.70;;;7.00;;
50900;SDS011;36879;51.416;6.678;2023-03-01T00:05:55;12.02;;;7.07;;
50900;SDS011;36879;51.416;6.678;2023-03-01T00:08:21;10.55;;;7.03;;
50900;SDS011;36879;51.416;6.678;2023-03-01T00:10:47;11.13;;;7.00;;
50900;SDS011;36879;51.416;6.678;2023-03-01T00:13:13;14.40;;;8.48;;
50900;SDS011;36879;51.416;6.678;2023-03-01T00:15:39;13.68;;;7.85;;
50900;SDS011;36879;51.416;6.678;2023-03-01T00:18:06;15.55;;;8.05;;
50900;SDS011;36879;51.416;6.678;2023-03-01T00:20:33;14.63;;;7.75;;
50900;SDS011;36879;51.416;6.678;2023-03-01T00:22:59;14.25;;;8.15;;
50900;SDS011;36879;51.416;6.678;2023-03-01T00:25:25;17.23;;;9.27;;
50900;SDS011;36879;51.416;6.678;2023-03-01T00:27:50;14.13;;;8.05;;
50900;SDS011;36879;51.416;6.678;2023-03-01T00:30:16;11.63;;;7.50;;
50900;SDS011;36879;51.416;6.678;2023-03-01T00:32:42;16.15;;;8.68;;
50900;SDS011;36879;51.416;6.678;2023-03-01T00:35:08;13.82;;;8.38;;
50900;SDS011;36879;51.416;6.678;2023-03-01T00:37:34;14.80;;;7.80;;
50900;SDS011;36879;51.416;6.678;2023-03-01T00:40:00;14.40;;;8.32;;
50900;SDS011;36879;51.416;6.678;2023-03-01T00:42:31;15.23;;;8.75;;
50900;SDS011;36879;51.416;6.678;2023-03-01T00:44:56;11.70;;;7.57;;
50900;SDS011;36879;51.416;6.678;2023-03-01T00:47:22;11.93;;;7.35;;
50900;SDS011;36879;51.416;6.678;2023-03-01T00:49:48;14.52;;;8.40;;
50900;SDS011;36879;51.416;6.678;2023-03-01T00:52:14;12.68;;;7.47;;
50900;SDS011;36879;51.416;6.678;2023-03-01T00:54:40;15.88;;;8.32;;
50900;SDS011;36879;51.416;6.678;2023-03-01T00:57:06;12.80;;;8.43;;
50900;SDS011;36879;51.416;6.678;2023-03-01T00:59:32;13.95;;;8.82;;
50900;SDS011;36879;51.416;6.678;2023-03-01T01:01:59;13.48;;;7.97;;
50900;SDS011;36879;51.416;6.678;2023-03-01T01:04:25;13.05;;;8.38;;
50900;SDS011;36879;51.416;6.678;2023-03-01T01:06:51;14.77;;;8.82;;
50900;SDS011;36879;51.416;6.678;2023-03-01T01:09:17;14.77;;;8.50;;
50900;SDS011;36879;51.416;6.678;2023-03-01T01:11:48;15.75;;;8.13;;
50900;SDS011;36879;51.416;6.678;2023-03-01T01:14:14;13.73;;;9.02;;
50900;SDS011;36879;51.416;6.678;2023-03-01T01:16:41;14.15;;;7.80;;
50900;SDS011;36879;51.416;6.678;2023-03-01T01:19:07;14.50;;;9.07;;
50900;SDS011;36879;51.416;6.678;2023-03-01T01:21:33;18.88;;;9.68;;
50900;SDS011;36879;51.416;6.678;2023-03-01T01:23:59;12.82;;;8.18;;
50900;SDS011;36879;51.416;6.678;2023-03-01T01:26:26;15.02;;;8.35;;
50900;SDS011;36879;51.416;6.678;2023-03-01T01:28:53;14.73;;;8.20;;
50900;SDS011;36879;51.416;6.678;2023-03-01T01:31:19;15.93;;;8.88;;
50900;SDS011;36879;51.416;6.678;2023-03-01T01:33:45;13.50;;;9.15;;
50900;SDS011;36879;51.416;6.678;2023-03-01T01:36:11;13.80;;;8.75;;
50900;SDS011;36879;51.416;6.678;2023-03-01T01:38:38;20.92;;;9.02;;
50900;SDS011;36879;51.416;6.678;2023-03-01T01:41:04;16.50;;;9.65;;
50900;SDS011;36879;51.416;6.678;2023-03-01T01:43:33;13.82;;;8.30;;
50900;SDS011;36879;51.416;6.678;2023-03-01T01:46:00;16.13;;;8.93;;
50900;SDS011;36879;51.416;6.678;2023-03-01T01:48:40;13.63;;;8.43;;
50900;SDS011;36879;51.416;6.678;2023-03-01T01:51:11;16.55;;;9.07;;
50900;SDS011;36879;51.416;6.678;2023-03-01T01:53:38;12.43;;;9.18;;
50900;SDS011;36879;51.416;6.678;2023-03-01T01:56:05;15.70;;;9.30;;
50900;SDS011;36879;51.416;6.678;2023-03-01T01:58:33;16.92;;;9.15;;
50900;SDS011;36879;51.416;6.678;2023-03-01T02:00:59;19.13;;;10.15;;
50900;SDS011;36879;51.416;6.678;2023-03-01T02:03:27;15.90;;;8.93;;
50900;SDS011;36879;51.416;6.678;2023-03-01T02:06:05;17.45;;;9.65;;
50900;SDS011;36879;51.416;6.678;2023-03-01T02:08:33;16.15;;;10.07;;
50900;SDS011;36879;51.416;6.678;2023-03-01T02:11:01;20.67;;;11.40;;
50900;SDS011;36879;51.416;6.678;2023-03-01T02:13:29;19.83;;;10.13;;
50900;SDS011;36879;51.416;6.678;2023-03-01T02:15:55;21.42;;;10.32;;
50900;SDS011;36879;51.416;6.678;2023-03-01T02:18:22;21.35;;;11.85;;
50900;SDS011;36879;51.416;6.678;2023-03-01T02:23:30;15.35;;;9.85;;
50900;SDS011;36879;51.416;6.678;2023-03-01T02:28:32;22.48;;;11.80;;
50900;SDS011;36879;51.416;6.678;2023-03-01T02:30:59;18.20;;;11.20;;
50900;SDS011;36879;51.416;6.678;2023-03-01T02:33:44;18.70;;;10.00;;
50900;SDS011;36879;51.416;6.678;2023-03-01T02:36:14;20.15;;;11.73;;
50900;SDS011;36879;51.416;6.678;2023-03-01T02:38:41;18.00;;;9.65;;
50900;SDS011;36879;51.416;6.678;2023-03-01T02:41:07;16.25;;;9.73;;
50900;SDS011;36879;51.416;6.678;2023-03-01T02:43:34;16.52;;;10.95;;
50900;SDS011;36879;51.416;6.678;2023-03-01T02:46:05;19.35;;;10.32;;
50900;SDS011;36879;51.416;6.678;2023-03-01T02:48:48;19.30;;;10.43;;
50900;SDS011;36879;51.416;6.678;2023-03-01T02:54:18;15.90;;;10.13;;
50900;SDS011;36879;51.416;6.678;2023-03-01T02:56:46;17.88;;;9.77;;
50900;SDS011;36879;51.416;6.678;2023-03-01T02:59:14;13.85;;;8.98;;
50900;SDS011;36879;51.416;6.678;2023-03-01T03:01:40;20.50;;;10.50;;
50900;SDS011;36879;51.416;6.678;2023-03-01T03:04:08;16.02;;;8.48;;
50900;SDS011;36879;51.416;6.678;2023-03-01T03:06:35;18.58;;;9.48;;
50900;SDS011;36879;51.416;6.678;2023-03-01T03:09:01;17.20;;;10.23;;
50900;SDS011;36879;51.416;6.678;2023-03-01T03:11:27;18.92;;;9.82;;
50900;SDS011;36879;51.416;6.678;2023-03-01T03:13:53;19.13;;;10.98;;
50900;SDS011;36879;51.416;6.678;2023-03-01T03:16:20;22.90;;;11.55;;
50900;SDS011;36879;51.416;6.678;2023-03-01T03:18:46;16.58;;;9.27;;
50900;SDS011;36879;51.416;6.678;2023-03-01T03:21:12;18.67;;;9.93;;
50900;SDS011;36879;51.416;6.678;2023-03-01T03:23:39;19.77;;;10.63;;
50900;SDS011;36879;51.416;6.678;2023-03-01T03:26:05;17.80;;;9.95;;
50900;SDS011;36879;51.416;6.678;2023-03-01T03:28:32;17.23;;;9.43;;
50900;SDS011;36879;51.416;6.678;2023-03-01T03:30:58;20.73;;;10.40;;
50900;SDS011;36879;51.416;6.678;2023-03-01T03:33:28;15.10;;;8.48;;
50900;SDS011;36879;51.416;6.678;2023-03-01T03:35:54;17.73;;;9.15;;
50900;SDS011;36879;51.416;6.678;2023-03-01T03:38:20;18.15;;;9.13;;
50900;SDS011;36879;51.416;6.678;2023-03-01T03:40:48;17.17;;;10.57;;
50900;SDS011;36879;51.416;6.678;2023-03-01T03:43:21;17.08;;;9.57;;
50900;SDS011;36879;51.416;6.678;2023-03-01T03:45:48;20.55;;;10.73;;
50900;SDS011;36879;51.416;6.678;2023-03-01T03:48:14;20.40;;;10.65;;
50900;SDS011;36879;51.416;6.678;2023-03-01T03:50:41;14.77;;;9.38;;
50900;SDS011;36879;51.416;6.678;2023-03-01T03:53:08;16.10;;;10.65;;
50900;SDS011;36879;51.416;6.678;2023-03-01T03:55:34;15.50;;;9.73;;
50900;SDS011;36879;51.416;6.678;2023-03-01T03:58:04;19.30;;;11.10;;
50900;SDS011;36879;51.416;6.678;2023-03-01T04:00:40;18.75;;;9.52;;
50900;SDS011;36879;51.416;6.678;2023-03-01T04:03:06;16.95;;;9.95;;
50900;SDS011;36879;51.416;6.678;2023-03-01T04:05:32;19.45;;;10.85;;
50900;SDS011;36879;51.416;6.678;2023-03-01T04:07:59;22.40;;;10.77;;
50900;SDS011;36879;51.416;6.678;2023-03-01T04:10:29;21.98;;;10.73;;
50900;SDS011;36879;51.416;6.678;2023-03-01T04:12:55;15.45;;;8.93;;
50900;SDS011;36879;51.416;6.678;2023-03-01T04:15:22;19.60;;;11.18;;
50900;SDS011;36879;51.416;6.678;2023-03-01T04:17:49;21.83;;;10.88;;
50900;SDS011;36879;51.416;6.678;2023-03-01T04:20:17;17.30;;;9.90;;
50900;SDS011;36879;51.416;6.678;2023-03-01T04:22:49;21.73;;;11.07;;
50900;SDS011;36879;51.416;6.678;2023-03-01T04:25:15;17.42;;;10.40;;
50900;SDS011;36879;51.416;6.678;2023-03-01T04:27:41;19.75;;;10.75;;
50900;SDS011;36879;51.416;6.678;2023-03-01T04:30:08;16.55;;;8.40;;
50900;SDS011;36879;51.416;6.678;2023-03-01T04:32:34;14.70;;;9.73;;
50900;SDS011;36879;51.416;6.678;2023-03-01T04:35:00;19.75;;;9.80;;
50900;SDS011;36879;51.416;6.678;2023-03-01T04:37:26;20.08;;;9.82;;
50900;SDS011;36879;51.416;6.678;2023-03-01T04:39:52;21.88;;;11.75;;
50900;SDS011;36879;51.416;6.678;2023-03-01T04:42:18;22.10;;;11.02;;
50900;SDS011;36879;51.416;6.678;2023-03-01T04:44:44;18.40;;;10.05;;
50900;SDS011;36879;51.416;6.678;2023-03-01T04:47:11;20.20;;;10.30;;
50900;SDS011;36879;51.416;6.678;2023-03-01T04:49:37;17.65;;;10.63;;
50900;SDS011;36879;51.416;6.678;2023-03-01T04:52:03;16.73;;;9.95;;
50900;SDS011;36879;51.416;6.678;2023-03-01T04:54:30;16.75;;;10.02;;
50900;SDS011;36879;51.416;6.678;2023-03-01T04:56:56;19.45;;;10.48;;
50900;SDS011;36879;51.416;6.678;2023-03-01T04:59:22;20.05;;;10.45;;
50900;SDS011;36879;51.416;6.678;2023-03-01T05:01:49;17.38;;;10.38;;
50900;SDS011;36879;51.416;6.678;2023-03-01T05:04:15;18.15;;;10.05;;
50900;SDS011;36879;51.416;6.678;2023-03-01T05:06:41;15.93;;;9.70;;
50900;SDS011;36879;51.416;6.678;2023-03-01T05:09:07;17.58;;;10.25;;
50900;SDS011;36879;51.416;6.678;2023-03-01T05:11:33;19.58;;;10.10;;
50900;SDS011;36879;51.416;6.678;2023-03-01T05:14:04;16.35;;;9.23;;
50900;SDS011;36879;51.416;6.678;2023-03-01T05:16:31;14.40;;;9.45;;
50900;SDS011;36879;51.416;6.678;2023-03-01T05:18:58;18.38;;;10.05;;
50900;SDS011;36879;51.416;6.678;2023-03-01T05:21:24;17.77;;;10.15;;
50900;SDS011;36879;51.416;6.678;2023-03-01T05:23:50;18.98;;;8.63;;
50900;SDS011;36879;51.416;6.678;2023-03-01T05:26:17;18.85;;;10.80;;
50900;SDS011;36879;51.416;6.678;2023-03-01T05:28:44;16.50;;;9.57;;
50900;SDS011;36879;51.416;6.678;2023-03-01T05:31:10;19.08;;;9.77;;
50900;SDS011;36879;51.416;6.678;2023-03-01T05:33:36;15.77;;;9.73;;
50900;SDS011;36879;51.416;6.678;2023-03-01T05:36:03;19.70;;;9.52;;
50900;SDS011;36879;51.416;6.678;2023-03-01T05:38:29;17.90;;;9.82;;
50900;SDS011;36879;51.416;6.678;2023-03-01T05:40:55;19.60;;;9.80;;
50900;SDS011;36879;51.416;6.678;2023-03-01T05:43:21;16.00;;;9.70;;
50900;SDS011;36879;51.416;6.678;2023-03-01T05:45:47;18.00;;;10.55;;
50900;SDS011;36879;51.416;6.678;2023-03-01T05:48:13;19.80;;;10.65;;
50900;SDS011;36879;51.416;6.678;2023-03-01T05:50:40;19.80;;;11.30;;
50900;SDS011;36879;51.416;6.678;2023-03-01T05:53:07;16.73;;;10.82;;
50900;SDS011;36879;51.416;6.678;2023-03-01T05:55:35;17.80;;;10.85;;
50900;SDS011;36879;51.416;6.678;2023-03-01T05:58:02;18.42;;;9.75;;
50900;SDS011;36879;51.416;6.678;2023-03-01T06:00:29;23.30;;;11.65;;
50900;SDS011;36879;51.416;6.678;2023-03-01T06:02:55;23.02;;;10.63;;
50900;SDS011;36879;51.416;6.678;2023-03-01T06:05:22;21.00;;;10.80;;
50900;SDS011;36879;51.416;6.678;2023-03-01T06:07:48;14.98;;;9.98;;
50900;SDS011;36879;51.416;6.678;2023-03-01T06:10:15;20.40;;;11.60;;
50900;SDS011;36879;51.416;6.678;2023-03-01T06:12:41;22.38;;;13.35;;
50900;SDS011;36879;51.416;6.678;2023-03-01T06:15:09;21.17;;;11.52;;
50900;SDS011;36879;51.416;6.678;2023-03-01T06:17:37;24.52;;;12.23;;
50900;SDS011;36879;51.416;6.678;2023-03-01T06:22:39;22.60;;;11.63;;
50900;SDS011;36879;51.416;6.678;2023-03-01T06:25:05;28.50;;;10.82;;
50900;SDS011;36879;51.416;6.678;2023-03-01T06:27:32;26.10;;;11.73;;
50900;SDS011;36879;51.416;6.678;2023-03-01T06:29:58;19.25;;;11.70;;
50900;SDS011;36879;51.416;6.678;2023-03-01T06:32:24;20.48;;;12.88;;
50900;SDS011;36879;51.416;6.678;2023-03-01T06:34:50;26.20;;;11.52;;
50900;SDS011;36879;51.416;6.678;2023-03-01T06:37:16;26.67;;;12.02;;
50900;SDS011;36879;51.416;6.678;2023-03-01T06:39:42;23.38;;;13.13;;
50900;SDS011;36879;51.416;6.678;2023-03-01T06:42:08;27.23;;;13.98;;
50900;SDS011;36879;51.416;6.678;2023-03-01T06:44:37;21.40;;;12.57;;
50900;SDS011;36879;51.416;6.678;2023-03-01T06:47:03;24.55;;;11.32;;
50900;SDS011;36879;51.416;6.678;2023-03-01T06:49:29;19.95;;;11.38;;
50900;SDS011;36879;51.416;6.678;2023-03-01T06:51:56;23.85;;;12.00;;
50900;SDS011;36879;51.416;6.678;2023-03-01T06:54:22;23.15;;;12.90;;
50900;SDS011;36879;51.416;6.678;2023-03-01T06:56:48;27.73;;;10.63;;
50900;SDS011;36879;51.416;6.678;2023-03-01T06:59:15;24.27;;;11.18;;
50900;SDS011;36879;51.416;6.678;2023-03-01T07:01:41;16.92;;;10.43;;
50900;SDS011;36879;51.416;6.678;2023-03-01T07:04:07;28.05;;;11.55;;
50900;SDS011;36879;51.416;6.678;2023-03-01T07:06:33;19.23;;;10.52;;
50900;SDS011;36879;51.416;6.678;2023-03-01T07:08:59;22.00;;;11.48;;
50900;SDS011;36879;51.416;6.678;2023-03-01T07:11:25;21.05;;;11.80;;
50900;SDS011;36879;51.416;6.678;2023-03-01T07:13:51;15.02;;;9.48;;
50900;SDS011;36879;51.416;6.678;2023-03-01T07:16:17;25.10;;;10.65;;
50900;SDS011;36879;51.416;6.678;2023-03-01T07:18:45;18.13;;;10.40;;
50900;SDS011;36879;51.416;6.678;2023-03-01T07:21:12;24.00;;;10.75;;
50900;SDS011;36879;51.416;6.678;2023-03-01T07:23:38;19.52;;;9.75;;
50900;SDS011;36879;51.416;6.678;2023-03-01T07:26:05;17.70;;;10.32;;
50900;SDS011;36879;51.416;6.678;2023-03-01T07:28:31;15.75;;;10.27;;
50900;SDS011;36879;51.416;6.678;2023-03-01T07:31:04;18.88;;;10.63;;
50900;SDS011;36879;51.416;6.678;2023-03-01T07:33:30;19.60;;;12.18;;
50900;SDS011;36879;51.416;6.678;2023-03-01T07:36:00;18.00;;;11.25;;
50900;SDS011;36879;51.416;6.678;2023-03-01T07:38:26;18.15;;;9.93;;
50900;SDS011;36879;51.416;6.678;2023-03-01T07:40:52;18.83;;;9.85;;
50900;SDS011;36879;51.416;6.678;2023-03-01T07:43:18;18.80;;;9.77;;
50900;SDS011;36879;51.416;6.678;2023-03-01T07:45:45;18.80;;;10.80;;
50900;SDS011;36879;51.416;6.678;2023-03-01T07:48:11;13.52;;;9.57;;
50900;SDS011;36879;51.416;6.678;2023-03-01T07:50:37;19.63;;;9.32;;
50900;SDS011;36879;51.416;6.678;2023-03-01T07:53:03;15.13;;;9.48;;
50900;SDS011;36879;51.416;6.678;2023-03-01T07:55:29;17.50;;;9.23;;
50900;SDS011;36879;51.416;6.678;2023-03-01T07:57:55;18.83;;;9.63;;
50900;SDS011;36879;51.416;6.678;2023-03-01T08:00:21;17.27;;;9.52;;
50900;SDS011;36879;51.416;6.678;2023-03-01T08:02:47;15.63;;;9.82;;
50900;SDS011;36879;51.416;6.678;2023-03-01T08:05:13;17.02;;;10.48;;
50900;SDS011;36879;51.416;6.678;2023-03-01T08:07:39;19.48;;;9.80;;
50900;SDS011;36879;51.416;6.678;2023-03-01T08:10:05;18.70;;;10.10;;
50900;SDS011;36879;51.416;6.678;2023-03-01T08:12:31;19.60;;;9.65;;
50900;SDS011;36879;51.416;6.678;2023-03-01T08:14:57;14.48;;;8.85;;
50900;SDS011;36879;51.416;6.678;2023-03-01T08:17:23;23.75;;;9.80;;
50900;SDS011;36879;51.416;6.678;2023-03-01T08:19:49;13.55;;;8.95;;
50900;SDS011;36879;51.416;6.678;2023-03-01T08:22:15;20.02;;;8.73;;
50900;SDS011;36879;51.416;6.678;2023-03-01T08:24:41;14.80;;;9.27;;
50900;SDS011;36879;51.416;6.678;2023-03-01T08:27:07;20.08;;;10.60;;
50900;SDS011;36879;51.416;6.678;2023-03-01T08:29:33;17.67;;;8.73;;
50900;SDS011;36879;51.416;6.678;2023-03-01T08:31:59;21.58;;;9.02;;
50900;SDS011;36879;51.416;6.678;2023-03-01T08:34:25;14.88;;;8.77;;
50900;SDS011;36879;51.416;6.678;2023-03-01T08:36:51;16.60;;;10.15;;
50900;SDS011;36879;51.416;6.678;2023-03-01T08:39:18;17.73;;;8.93;;
50900;SDS011;36879;51.416;6.678;2023-03-01T08:41:45;15.45;;;8.80;;
50900;SDS011;36879;51.416;6.678;2023-03-01T08:44:12;17.23;;;8.20;;
50900;SDS011;36879;51.416;6.678;2023-03-01T08:46:39;13.65;;;7.38;;
50900;SDS011;36879;51.416;6.678;2023-03-01T08:49:12;20.70;;;9.10;;
50900;SDS011;36879;51.416;6.678;2023-03-01T08:51:39;13.98;;;7.82;;
50900;SDS011;36879;51.416;6.678;2023-03-01T08:54:06;12.90;;;6.75;;
50900;SDS011;36879;51.416;6.678;2023-03-01T08:56:32;14.00;;;7.95;;
50900;SDS011;36879;51.416;6.678;2023-03-01T08:58:58;14.05;;;8.32;;
50900;SDS011;36879;51.416;6.678;2023-03-01T09:01:24;15.23;;;7.55;;
50900;SDS011;36879;51.416;6.678;2023-03-01T09:03:50;11.60;;;6.75;;
50900;SDS011;36879;51.416;6.678;2023-03-01T09:06:16;13.00;;;8.15;;
50900;SDS011;36879;51.416;6.678;2023-03-01T09:08:46;15.82;;;8.57;;
50900;SDS011;36879;51.416;6.678;2023-03-01T09:11:14;12.68;;;7.50;;
50900;SDS011;36879;51.416;6.678;2023-03-01T09:13:41;13.52;;;8.23;;
50900;SDS011;36879;51.416;6.678;2023-03-01T09:16:07;12.85;;;7.20;;
50900;SDS011;36879;51.416;6.678;2023-03-01T09:18:34;22.23;;;7.72;;
50900;SDS011;36879;51.416;6.678;2023-03-01T09:21:05;13.25;;;7.35;;
50900;SDS011;36879;51.416;6.678;2023-03-01T09:23:32;12.65;;;6.18;;
50900;SDS011;36879;51.416;6.678;2023-03-01T09:25:59;12.23;;;6.68;;
50900;SDS011;36879;51.416;6.678;2023-03-01T09:28:25;17.70;;;7.10;;
50900;SDS011;36879;51.416;6.678;2023-03-01T09:30:51;13.80;;;7.30;;
50900;SDS011;36879;51.416;6.678;2023-03-01T09:33:17;12.80;;;6.93;;
50900;SDS011;36879;51.416;6.678;2023-03-01T09:35:43;14.48;;;7.53;;
50900;SDS011;36879;51.416;6.678;2023-03-01T09:38:12;11.95;;;6.70;;
50900;SDS011;36879;51.416;6.678;2023-03-01T09:40:43;13.30;;;7.25;;
50900;SDS011;36879;51.416;6.678;2023-03-01T09:45:55;17.65;;;9.32;;
50900;SDS011;36879;51.416;6.678;2023-03-01T09:48:26;13.48;;;8.23;;
50900;SDS011;36879;51.416;6.678;2023-03-01T09:50:54;9.80;;;6.63;;
50900;SDS011;36879;51.416;6.678;2023-03-01T09:53:26;11.15;;;6.70;;
50900;SDS011;36879;51.416;6.678;2023-03-01T10:00:49;11.23;;;6.25;;
50900;SDS011;36879;51.416;6.678;2023-03-01T10:03:26;11.75;;;6.18;;
50900;SDS011;36879;51.416;6.678;2023-03-01T10:08:46;10.35;;;5.95;;
50900;SDS011;36879;51.416;6.678;2023-03-01T10:11:20;11.38;;;6.25;;
50900;SDS011;36879;51.416;6.678;2023-03-01T10:13:48;14.52;;;8.27;;
50900;SDS011;36879;51.416;6.678;2023-03-01T10:16:22;12.73;;;7.38;;
50900;SDS011;36879;51.416;6.678;2023-03-01T10:18:52;14.98;;;7.82;;
50900;SDS011;36879;51.416;6.678;2023-03-01T10:21:19;13.98;;;7.75;;
50900;SDS011;36879;51.416;6.678;2023-03-01T10:23:46;18.50;;;6.68;;
50900;SDS011;36879;51.416;6.678;2023-03-01T10:31:11;10.73;;;6.57;;
50900;SDS011;36879;51.416;6.678;2023-03-01T10:33:37;10.52;;;7.32;;
50900;SDS011;36879;51.416;6.678;2023-03-01T10:36:07;11.63;;;6.32;;
50900;SDS011;36879;51.416;6.678;2023-03-01T10:38:50;10.05;;;5.90;;
50900;SDS011;36879;51.416;6.678;2023-03-01T10:41:18;8.05;;;5.97;;
50900;SDS011;36879;51.416;6.678;2023-03-01T10:43:46;9.75;;;6.43;;
50900;SDS011;36879;51.416;6.678;2023-03-01T10:51:35;10.70;;;5.30;;
50900;SDS011;36879;51.416;6.678;2023-03-01T10:54:01;10.25;;;6.20;;
50900;SDS011;36879;51.416;6.678;2023-03-01T10:56:27;8.98;;;5.28;;
50900;SDS011;36879;51.416;6.678;2023-03-01T11:01:26;11.40;;;6.15;;
50900;SDS011;36879;51.416;6.678;2023-03-01T11:06:30;10.63;;;5.25;;
50900;SDS011;36879;51.416;6.678;2023-03-01T11:08:57;8.20;;;4.78;;
50900;SDS011;36879;51.416;6.678;2023-03-01T11:11:38;9.82;;;5.70;;
50900;SDS011;36879;51.416;6.678;2023-03-01T11:16:58;12.80;;;6.68;;
50900;SDS011;36879;51.416;6.678;2023-03-01T11:19:24;9.48;;;5.38;;
50900;SDS011;36879;51.416;6.678;2023-03-01T11:22:05;10.77;;;6.38;;
50900;SDS011;36879;51.416;6.678;2023-03-01T11:27:03;11.35;;;5.10;;
50900;SDS011;36879;51.416;6.678;2023-03-01T11:29:32;7.70;;;4.78;;
50900;SDS011;36879;51.416;6.678;2023-03-01T11:32:01;9.70;;;4.50;;
50900;SDS011;36879;51.416;6.678;2023-03-01T11:37:15;8.40;;;4.43;;
50900;SDS011;36879;51.416;6.678;2023-03-01T11:39:47;11.35;;;4.60;;
50900;SDS011;36879;51.416;6.678;2023-03-01T11:42:20;8.48;;;5.15;;
50900;SDS011;36879;51.416;6.678;2023-03-01T11:44:52;7.55;;;4.38;;
50900;SDS011;36879;51.416;6.678;2023-03-01T12:11:29;11.07;;;4.57;;
50900;SDS011;36879;51.416;6.678;2023-03-01T12:26:58;6.15;;;3.83;;
50900;SDS011;36879;51.416;6.678;2023-03-01T12:37:22;7.53;;;5.05;;
50900;SDS011;36879;51.416;6.678;2023-03-01T12:39:58;10.40;;;5.00;;
50900;SDS011;36879;51.416;6.678;2023-03-01T12:47:49;8.07;;;4.57;;
50900;SDS011;36879;51.416;6.678;2023-03-01T12:50:19;7.47;;;4.65;;
50900;SDS011;36879;51.416;6.678;2023-03-01T12:52:47;8.88;;;5.20;;
50900;SDS011;36879;51.416;6.678;2023-03-01T12:55:18;7.82;;;4.75;;
50900;SDS011;36879;51.416;6.678;2023-03-01T12:57:50;8.07;;;3.95;;
50900;SDS011;36879;51.416;6.678;2023-03-01T13:05:19;7.57;;;4.15;;
50900;SDS011;36879;51.416;6.678;2023-03-01T13:15:38;8.27;;;4.22;;
50900;SDS011;36879;51.416;6.678;2023-03-01T13:18:26;9.48;;;5.40;;
50900;SDS011;36879;51.416;6.678;2023-03-01T13:20:51;8.18;;;4.95;;
50900;SDS011;36879;51.416;6.678;2023-03-01T13:31:00;6.50;;;4.22;;
50900;SDS011;36879;51.416;6.678;2023-03-01T13:35:53;8.40;;;4.72;;
50900;SDS011;36879;51.416;6.678;2023-03-01T13:41:06;7.13;;;4.03;;
50900;SDS011;36879;51.416;6.678;2023-03-01T13:43:36;8.95;;;4.57;;
50900;SDS011;36879;51.416;6.678;2023-03-01T13:46:21;8.13;;;4.00;;
50900;SDS011;36879;51.416;6.678;2023-03-01T13:48:49;8.98;;;4.78;;
50900;SDS011;36879;51.416;6.678;2023-03-01T13:51:16;7.68;;;4.32;;
50900;SDS011;36879;51.416;6.678;2023-03-01T13:53:46;12.18;;;5.30;;
50900;SDS011;36879;51.416;6.678;2023-03-01T13:58:55;7.85;;;4.47;;
50900;SDS011;36879;51.416;6.678;2023-03-01T14:01:25;9.00;;;5.00;;
50900;SDS011;36879;51.416;6.678;2023-03-01T14:03:52;7.45;;;3.90;;
50900;SDS011;36879;51.416;6.678;2023-03-01T14:06:20;7.70;;;4.60;;
50900;SDS011;36879;51.416;6.678;2023-03-01T14:08:48;5.93;;;3.90;;
50900;SDS011;36879;51.416;6.678;2023-03-01T14:19:29;7.85;;;4.00;;
50900;SDS011;36879;51.416;6.678;2023-03-01T14:21:59;10.10;;;4.60;;
50900;SDS011;36879;51.416;6.678;2023-03-01T14:24:28;7.97;;;4.30;;
50900;SDS011;36879;51.416;6.678;2023-03-01T14:26:55;9.85;;;4.32;;
50900;SDS011;36879;51.416;6.678;2023-03-01T14:29:35;10.07;;;4.47;;
50900;SDS011;36879;51.416;6.678;2023-03-01T14:32:35;8.00;;;4.50;;
50900;SDS011;36879;51.416;6.678;2023-03-01T14:34:54;9.98;;;5.28;;
50900;SDS011;36879;51.416;6.678;2023-03-01T14:37:25;7.95;;;4.82;;
50900;SDS011;36879;51.416;6.678;2023-03-01T14:39:52;7.95;;;4.30;;
50900;SDS011;36879;51.416;6.678;2023-03-01T14:42:19;7.55;;;4.50;;
50900;SDS011;36879;51.416;6.678;2023-03-01T14:44:46;8.77;;;4.55;;
50900;SDS011;36879;51.416;6.678;2023-03-01T14:47:34;8.48;;;4.70;;
50900;SDS011;36879;51.416;6.678;2023-03-01T14:50:01;9.27;;;5.30;;
50900;SDS011;36879;51.416;6.678;2023-03-01T14:52:32;10.27;;;5.63;;
50900;SDS011;36879;51.416;6.678;2023-03-01T14:55:00;8.45;;;5.15;;
50900;SDS011;36879;51.416;6.678;2023-03-01T14:57:28;10.85;;;5.32;;
50900;SDS011;36879;51.416;6.678;2023-03-01T14:59:55;12.90;;;6.35;;
50900;SDS011;36879;51.416;6.678;2023-03-01T15:02:22;9.25;;;5.28;;
50900;SDS011;36879;51.416;6.678;2023-03-01T15:04:52;10.52;;;5.85;;
50900;SDS011;36879;51.416;6.678;2023-03-01T15:07:21;11.25;;;5.30;;
50900;SDS011;36879;51.416;6.678;2023-03-01T15:09:48;11.50;;;5.47;;
50900;SDS011;36879;51.416;6.678;2023-03-01T15:14:52;9.25;;;5.97;;
50900;SDS011;36879;51.416;6.678;2023-03-01T15:17:37;14.55;;;4.97;;
50900;SDS011;36879;51.416;6.678;2023-03-01T15:20:05;11.85;;;5.90;;
50900;SDS011;36879;51.416;6.678;2023-03-01T15:22:32;8.90;;;4.78;;
50900;SDS011;36879;51.416;6.678;2023-03-01T15:24:58;11.25;;;6.25;;
50900;SDS011;36879;51.416;6.678;2023-03-01T15:27:25;10.30;;;6.00;;
50900;SDS011;36879;51.416;6.678;2023-03-01T15:29:55;7.35;;;4.78;;
50900;SDS011;36879;51.416;6.678;2023-03-01T15:32:32;10.52;;;4.72;;
50900;SDS011;36879;51.416;6.678;2023-03-01T15:34:59;11.02;;;6.05;;
50900;SDS011;36879;51.416;6.678;2023-03-01T15:37:39;9.57;;;4.88;;
50900;SDS011;36879;51.416;6.678;2023-03-01T15:42:45;8.07;;;5.15;;
50900;SDS011;36879;51.416;6.678;2023-03-01T15:47:43;10.80;;;5.32;;
50900;SDS011;36879;51.416;6.678;2023-03-01T15:50:32;10.35;;;4.65;;
50900;SDS011;36879;51.416;6.678;2023-03-01T15:52:59;9.90;;;5.32;;
50900;SDS011;36879;51.416;6.678;2023-03-01T15:55:29;8.45;;;4.47;;
50900;SDS011;36879;51.416;6.678;2023-03-01T16:00:25;12.13;;;5.60;;
50900;SDS011;36879;51.416;6.678;2023-03-01T16:02:51;13.57;;;5.20;;
50900;SDS011;36879;51.416;6.678;2023-03-01T16:05:22;15.52;;;6.60;;
50900;SDS011;36879;51.416;6.678;2023-03-01T16:07:48;9.68;;;5.35;;
50900;SDS011;36879;51.416;6.678;2023-03-01T16:10:15;9.73;;;4.70;;
50900;SDS011;36879;51.416;6.678;2023-03-01T16:12:41;15.40;;;5.40;;
50900;SDS011;36879;51.416;6.678;2023-03-01T16:15:16;10.63;;;5.07;;
50900;SDS011;36879;51.416;6.678;2023-03-01T16:28:06;8.10;;;4.23;;
50900;SDS011;36879;51.416;6.678;2023-03-01T16:30:39;14.80;;;5.28;;
50900;SDS011;36879;51.416;6.678;2023-03-01T16:33:05;8.55;;;4.90;;
50900;SDS011;36879;51.416;6.678;2023-03-01T16:35:32;8.48;;;4.70;;
50900;SDS011;36879;51.416;6.678;2023-03-01T16:51:19;10.60;;;5.43;;
50900;SDS011;36879;51.416;6.678;2023-03-01T16:53:46;14.98;;;6.38;;
50900;SDS011;36879;51.416;6.678;2023-03-01T16:56:12;9.00;;;4.80;;
50900;SDS011;36879;51.416;6.678;2023-03-01T16:58:39;9.98;;;5.57;;
50900;SDS011;36879;51.416;6.678;2023-03-01T17:03:31;10.35;;;5.40;;
50900;SDS011;36879;51.416;6.678;2023-03-01T17:06:00;10.80;;;5.85;;
50900;SDS011;36879;51.416;6.678;2023-03-01T17:08:26;12.20;;;5.75;;
50900;SDS011;36879;51.416;6.678;2023-03-01T17:10:52;12.38;;;5.35;;
50900;SDS011;36879;51.416;6.678;2023-03-01T17:13:19;10.50;;;6.00;;
50900;SDS011;36879;51.416;6.678;2023-03-01T17:15:45;10.48;;;4.57;;
50900;SDS011;36879;51.416;6.678;2023-03-01T19:18:57;7.93;;;4.95;;
50900;SDS011;36879;51.416;6.678;2023-03-01T19:21:24;10.80;;;6.00;;
50900;SDS011;36879;51.416;6.678;2023-03-01T19:23:50;9.80;;;5.35;;
50900;SDS011;36879;51.416;6.678;2023-03-01T19:26:18;12.20;;;5.70;;